Time;durP1;ratioP1;P1;durP2;ratioP2;P2;SDS_P1;SDS_P2;PMS_P1;PMS_P2;Temp;Humidity;BMP_temperature;BMP_pressure;BME280_temperature;BME280_humidity;BME280_pressure;Samples;Min_cycle;Max_cycle;Signal;HPM_P1;HPM_P2
2021/12/23 00:00:23;;;;;;;19.30;14.67;;;-0.30;1.00;;;;;;5083680;28;20831;-62
2021/12/23 00:02:52;;;;;;;22.10;16.43;;;-0.30;1.00;;;;;;5086022;28;20472;-62
2021/12/23 00:05:22;;;;;;;22.47;15.93;;;-0.40;1.00;;;;;;5096641;28;20460;-62
2021/12/23 00:07:49;;;;;;;21.87;15.10;;;-0.40;1.00;;;;;;5083170;28;20463;-62
2021/12/23 00:10:16;;;;;;;18.43;15.00;;;-0.30;1.00;;;;;;5079859;28;20537;-62
2021/12/23 00:12:45;;;;;;;25.60;17.17;;;-0.30;1.00;;;;;;5079661;28;20511;-62
2021/12/23 00:15:23;;;;;;;18.83;14.13;;;-0.30;1.00;;;;;;5079363;28;20460;-62
2021/12/23 00:18:02;;;;;;;21.17;14.33;;;-0.30;1.00;;;;;;5080293;28;20564;-62
2021/12/23 00:23:28;;;;;;;18.40;14.10;;;-0.40;1.00;;;;;;5075511;28;20443;-62
2021/12/23 00:26:01;;;;;;;22.87;15.90;;;-0.30;1.00;;;;;;5077441;28;20505;-62
2021/12/23 00:28:29;;;;;;;22.00;14.63;;;-0.30;1.00;;;;;;5076772;28;20466;-61
2021/12/23 00:30:56;;;;;;;23.93;15.43;;;-0.30;1.00;;;;;;5083481;28;20457;-61
2021/12/23 00:33:24;;;;;;;20.53;14.37;;;-0.30;1.00;;;;;;5100275;28;20461;-62
2021/12/23 00:35:54;;;;;;;28.30;16.10;;;-0.30;1.00;;;;;;5099917;28;20465;-62
2021/12/23 00:38:26;;;;;;;23.30;16.53;;;-0.30;1.00;;;;;;5097649;28;20844;-62
2021/12/23 00:41:01;;;;;;;23.23;15.23;;;-0.30;1.00;;;;;;5071094;28;20461;-62
2021/12/23 00:43:29;;;;;;;25.00;17.87;;;-0.30;1.00;;;;;;5099728;28;20567;-62
2021/12/23 00:45:56;;;;;;;24.33;15.60;;;-0.30;1.00;;;;;;5099708;28;20464;-62
2021/12/23 00:48:25;;;;;;;19.87;14.73;;;-0.20;1.00;;;;;;5099367;28;20456;-62
2021/12/23 00:50:53;;;;;;;20.80;15.40;;;-0.20;1.00;;;;;;5087958;28;20518;-62
2021/12/23 00:53:22;;;;;;;23.67;16.63;;;-0.20;1.00;;;;;;5097096;28;20506;-62
2021/12/23 00:55:55;;;;;;;21.37;15.73;;;-0.20;1.00;;;;;;5078815;28;20463;-62
2021/12/23 00:58:23;;;;;;;25.20;16.50;;;-0.20;1.00;;;;;;5078870;28;20542;-62
2021/12/23 01:00:51;;;;;;;20.40;15.07;;;-0.10;1.00;;;;;;5078546;28;20470;-62
2021/12/23 01:03:21;;;;;;;20.17;14.60;;;-0.10;1.00;;;;;;5079493;28;20461;-62
2021/12/23 01:05:49;;;;;;;24.37;16.60;;;-0.20;1.00;;;;;;5078560;28;20821;-62
2021/12/23 01:08:19;;;;;;;22.93;15.40;;;-0.10;1.00;;;;;;5079459;28;20512;-62
2021/12/23 01:10:49;;;;;;;20.80;14.07;;;-0.10;1.00;;;;;;5078911;28;20752;-62
2021/12/23 01:13:18;;;;;;;20.50;15.47;;;-0.10;1.00;;;;;;5079274;28;20478;-62
2021/12/23 01:16:02;;;;;;;21.77;15.90;;;-0.10;1.00;;;;;;5078941;28;21008;-62
2021/12/23 01:18:32;;;;;;;26.87;15.57;;;-0.10;1.00;;;;;;5079127;28;20499;-62
2021/12/23 01:21:15;;;;;;;22.67;15.60;;;-0.10;1.00;;;;;;5078091;28;20536;-62
2021/12/23 01:23:45;;;;;;;22.90;16.70;;;-0.10;1.00;;;;;;5079050;28;20502;-62
2021/12/23 01:26:19;;;;;;;21.20;15.40;;;-0.10;1.00;;;;;;5078016;28;20532;-62
2021/12/23 01:28:52;;;;;;;22.10;16.13;;;-0.20;1.00;;;;;;5078732;28;20469;-62
2021/12/23 01:31:19;;;;;;;22.10;15.97;;;-0.10;1.00;;;;;;5077650;28;20465;-62
2021/12/23 01:33:47;;;;;;;21.23;15.50;;;-0.10;1.00;;;;;;5077963;28;20464;-62
2021/12/23 01:36:15;;;;;;;21.27;16.37;;;-0.20;1.00;;;;;;5076997;28;20465;-62
2021/12/23 01:38:43;;;;;;;26.40;17.00;;;-0.20;1.00;;;;;;5078110;28;21035;-61
2021/12/23 01:41:11;;;;;;;22.73;16.70;;;-0.20;1.00;;;;;;5077732;28;20822;-62
2021/12/23 01:43:39;;;;;;;21.00;16.23;;;-0.10;1.00;;;;;;5078846;28;20473;-62
2021/12/23 01:46:06;;;;;;;26.97;16.90;;;-0.10;1.00;;;;;;5078335;28;20462;-62
2021/12/23 01:48:33;;;;;;;23.10;16.73;;;-0.20;1.00;;;;;;5076632;28;20458;-62
2021/12/23 01:51:00;;;;;;;27.33;17.20;;;-0.10;1.00;;;;;;5075153;28;20463;-62
2021/12/23 01:53:29;;;;;;;22.23;15.90;;;-0.10;1.00;;;;;;5077416;28;20815;-60
2021/12/23 01:55:56;;;;;;;23.13;16.70;;;-0.10;1.00;;;;;;5073786;28;20461;-61
2021/12/23 01:58:26;;;;;;;21.87;15.43;;;-0.10;1.00;;;;;;5075611;28;20760;-61
2021/12/23 02:00:53;;;;;;;26.13;15.73;;;-0.10;1.00;;;;;;5076108;28;20454;-62
2021/12/23 02:03:21;;;;;;;27.90;15.83;;;-0.10;1.00;;;;;;5076434;28;20461;-62
2021/12/23 02:05:48;;;;;;;19.77;15.27;;;-0.10;1.00;;;;;;5076775;28;20519;-62
2021/12/23 02:08:15;;;;;;;21.47;15.60;;;-0.10;1.00;;;;;;5073844;28;20447;-62
2021/12/23 02:10:44;;;;;;;23.90;18.23;;;-0.10;1.00;;;;;;5076318;28;20758;-62
2021/12/23 02:13:12;;;;;;;23.50;18.00;;;-0.10;1.00;;;;;;5076087;28;20472;-62
2021/12/23 02:15:39;;;;;;;25.50;17.40;;;-0.20;1.00;;;;;;5076858;28;20966;-62
2021/12/23 02:18:06;;;;;;;23.03;17.63;;;-0.20;1.00;;;;;;5076867;28;20482;-62
2021/12/23 02:20:35;;;;;;;21.13;15.80;;;-0.10;1.00;;;;;;5076133;28;20479;-62
2021/12/23 02:23:04;;;;;;;26.93;17.67;;;-0.20;1.00;;;;;;5075712;28;20819;-62
2021/12/23 02:25:31;;;;;;;25.50;17.30;;;-0.20;1.00;;;;;;5073032;28;20438;-62
2021/12/23 02:27:58;;;;;;;24.93;15.80;;;-0.10;1.00;;;;;;5074855;28;20454;-62
2021/12/23 02:30:27;;;;;;;25.50;16.70;;;-0.20;1.00;;;;;;5075692;28;20758;-62
2021/12/23 02:32:55;;;;;;;26.33;19.20;;;-0.10;1.00;;;;;;5073013;28;20514;-62
2021/12/23 02:35:25;;;;;;;28.30;17.87;;;-0.20;1.00;;;;;;5075791;28;20951;-62
2021/12/23 02:37:54;;;;;;;22.83;17.80;;;-0.10;1.00;;;;;;5076197;28;20455;-62
2021/12/23 02:40:27;;;;;;;23.00;16.97;;;-0.10;1.00;;;;;;5072694;28;20468;-62
2021/12/23 02:42:59;;;;;;;28.70;18.60;;;-0.20;1.00;;;;;;5072876;28;20477;-62
2021/12/23 02:45:26;;;;;;;28.87;18.90;;;-0.10;1.00;;;;;;5076385;28;20508;-62
2021/12/23 02:47:54;;;;;;;25.07;17.67;;;-0.10;1.00;;;;;;5077853;28;20459;-62
2021/12/23 02:50:21;;;;;;;26.03;16.90;;;-0.10;1.00;;;;;;5075281;28;20520;-62
2021/12/23 02:52:47;;;;;;;21.20;15.83;;;-0.10;1.00;;;;;;5076915;28;20512;-62
2021/12/23 02:55:19;;;;;;;27.30;18.03;;;-0.10;1.00;;;;;;5077031;28;20512;-62
2021/12/23 02:57:46;;;;;;;26.57;17.90;;;0.00;1.00;;;;;;5076876;28;20497;-62
2021/12/23 03:00:14;;;;;;;26.63;18.60;;;0.00;1.00;;;;;;5077337;28;20462;-62
2021/12/23 03:02:42;;;;;;;26.50;16.60;;;0.00;1.00;;;;;;5076608;28;20473;-59
2021/12/23 03:05:10;;;;;;;25.97;18.00;;;0.10;1.00;;;;;;5075011;28;20906;-61
2021/12/23 03:07:37;;;;;;;26.20;17.13;;;0.00;1.00;;;;;;5075519;28;20468;-62
2021/12/23 03:10:07;;;;;;;24.90;16.60;;;0.10;1.00;;;;;;5077809;28;20906;-62
2021/12/23 03:12:40;;;;;;;25.47;18.70;;;0.10;1.00;;;;;;5079927;28;20738;-62
2021/12/23 03:15:08;;;;;;;24.10;17.37;;;0.10;1.00;;;;;;5080010;28;20465;-62
2021/12/23 03:17:35;;;;;;;25.33;17.97;;;0.10;1.00;;;;;;5080655;28;20489;-62
2021/12/23 03:20:03;;;;;;;28.87;17.77;;;0.10;1.00;;;;;;5080591;28;20522;-60
2021/12/23 03:22:30;;;;;;;28.73;17.60;;;0.10;1.00;;;;;;5080620;28;20466;-62
2021/12/23 03:24:58;;;;;;;25.10;17.73;;;0.10;1.00;;;;;;5080069;28;20582;-61
2021/12/23 03:27:25;;;;;;;27.93;18.67;;;0.20;1.00;;;;;;5080962;28;20544;-61
2021/12/23 03:29:54;;;;;;;26.60;18.40;;;0.20;1.00;;;;;;5080692;28;20955;-62
2021/12/23 03:32:21;;;;;;;27.20;18.17;;;0.20;1.00;;;;;;5080349;28;20476;-62
2021/12/23 03:34:48;;;;;;;27.53;18.30;;;0.20;1.00;;;;;;5080390;28;20468;-62
2021/12/23 03:37:15;;;;;;;29.40;18.93;;;0.20;1.00;;;;;;5079691;28;20490;-62
2021/12/23 03:39:42;;;;;;;26.60;18.50;;;0.20;1.00;;;;;;5080274;28;20463;-60
2021/12/23 03:42:12;;;;;;;25.60;17.47;;;0.20;1.00;;;;;;5080926;28;20463;-59
2021/12/23 03:44:39;;;;;;;24.77;17.20;;;0.20;1.00;;;;;;5080531;28;20518;-61
2021/12/23 03:47:07;;;;;;;28.07;18.80;;;0.20;1.00;;;;;;5079462;28;20465;-62
2021/12/23 03:49:34;;;;;;;26.50;18.57;;;0.30;1.00;;;;;;5097808;28;20463;-62
2021/12/23 03:52:02;;;;;;;26.00;17.23;;;0.20;1.00;;;;;;5083483;28;20466;-60
2021/12/23 03:54:32;;;;;;;24.80;17.33;;;0.20;1.00;;;;;;5080042;28;20742;-59
2021/12/23 03:56:59;;;;;;;26.83;17.20;;;0.20;1.00;;;;;;5079081;28;20492;-60
2021/12/23 03:59:26;;;;;;;26.80;17.70;;;0.20;1.00;;;;;;5080315;28;20488;-62
2021/12/23 04:01:53;;;;;;;26.07;18.57;;;0.20;1.00;;;;;;5079840;28;20473;-62
2021/12/23 04:04:21;;;;;;;26.30;17.40;;;0.10;1.00;;;;;;5080026;28;20886;-62
2021/12/23 04:06:48;;;;;;;23.00;15.07;;;0.10;1.00;;;;;;5079252;28;20465;-63
2021/12/23 04:09:15;;;;;;;27.23;18.63;;;0.00;1.00;;;;;;5080071;28;20461;-62
2021/12/23 04:11:42;;;;;;;24.50;17.40;;;0.00;1.00;;;;;;5080052;28;20457;-62
2021/12/23 04:14:09;;;;;;;27.00;17.57;;;0.00;1.00;;;;;;5079941;28;20462;-62
2021/12/23 04:16:39;;;;;;;27.70;18.70;;;0.10;1.00;;;;;;5079637;28;20463;-62
2021/12/23 04:19:09;;;;;;;25.83;18.60;;;0.00;1.00;;;;;;5078978;28;20575;-62
2021/12/23 04:21:37;;;;;;;26.67;18.50;;;0.00;1.00;;;;;;5078502;28;20471;-62
2021/12/23 04:24:05;;;;;;;27.57;17.93;;;-0.10;1.00;;;;;;5079470;28;20514;-62
2021/12/23 04:26:32;;;;;;;30.47;19.67;;;-0.10;1.00;;;;;;5079694;28;20471;-62
2021/12/23 04:28:59;;;;;;;30.77;19.50;;;-0.10;1.00;;;;;;5078984;28;20878;-62
2021/12/23 04:31:26;;;;;;;28.23;20.73;;;-0.10;1.00;;;;;;5079913;28;20466;-62
2021/12/23 04:33:55;;;;;;;25.03;18.20;;;-0.10;1.00;;;;;;5079089;28;20511;-62
2021/12/23 04:36:24;;;;;;;27.60;20.90;;;-0.10;1.00;;;;;;5079208;28;20519;-61
2021/12/23 04:38:53;;;;;;;27.80;18.47;;;-0.10;1.00;;;;;;5078509;28;20471;-62
2021/12/23 04:41:20;;;;;;;26.10;18.00;;;0.00;1.00;;;;;;5079402;28;20815;-62
2021/12/23 04:43:47;;;;;;;26.30;19.70;;;0.00;1.00;;;;;;5078642;28;20788;-60
2021/12/23 04:46:14;;;;;;;30.13;17.97;;;-0.10;1.00;;;;;;5079451;28;20465;-60
2021/12/23 04:48:41;;;;;;;28.57;19.93;;;-0.20;1.00;;;;;;5086691;28;20453;-60
2021/12/23 04:51:08;;;;;;;27.70;18.47;;;-0.20;1.00;;;;;;5079287;28;20527;-60
2021/12/23 04:53:35;;;;;;;31.33;20.10;;;-0.20;1.00;;;;;;5079070;28;20527;-62
2021/12/23 04:56:03;;;;;;;30.67;19.47;;;-0.20;1.00;;;;;;5078912;28;20491;-62
2021/12/23 04:58:31;;;;;;;29.60;20.73;;;-0.30;1.00;;;;;;5077615;28;20503;-62
2021/12/23 05:00:58;;;;;;;26.07;19.40;;;-0.30;1.00;;;;;;5077959;28;20519;-62
2021/12/23 05:03:26;;;;;;;29.23;18.73;;;-0.40;1.00;;;;;;5078763;28;20465;-62
2021/12/23 05:05:53;;;;;;;26.60;19.20;;;-0.30;1.00;;;;;;5079014;28;20465;-62
2021/12/23 05:08:21;;;;;;;26.10;18.63;;;-0.40;1.00;;;;;;5078630;28;20515;-62
2021/12/23 05:10:48;;;;;;;28.27;20.03;;;-0.40;1.00;;;;;;5077725;28;20428;-62
2021/12/23 05:13:17;;;;;;;29.73;19.13;;;-0.50;1.00;;;;;;5078854;28;20457;-60
2021/12/23 05:15:44;;;;;;;32.00;18.70;;;-0.50;1.00;;;;;;5078481;28;20461;-62
2021/12/23 05:18:11;;;;;;;29.83;19.20;;;-0.50;1.00;;;;;;5078888;28;20599;-62
2021/12/23 05:20:38;;;;;;;27.67;18.63;;;-0.50;1.00;;;;;;5077601;28;20871;-62
2021/12/23 05:23:05;;;;;;;27.73;18.83;;;-0.50;1.00;;;;;;5078459;28;20898;-62
2021/12/23 05:25:32;;;;;;;29.60;19.70;;;-0.50;1.00;;;;;;5078243;28;20519;-62
2021/12/23 05:28:00;;;;;;;31.17;19.20;;;-0.50;1.00;;;;;;5078575;28;20514;-60
2021/12/23 05:30:28;;;;;;;33.33;22.17;;;-0.50;1.00;;;;;;5077946;28;20878;-62
2021/12/23 05:32:56;;;;;;;30.67;19.63;;;-0.60;1.00;;;;;;5078395;28;20461;-61
2021/12/23 05:35:24;;;;;;;31.40;20.23;;;-0.60;1.00;;;;;;5077876;28;20518;-62
2021/12/23 05:37:52;;;;;;;32.13;21.40;;;-0.60;1.00;;;;;;5078354;28;20806;-62
2021/12/23 05:40:22;;;;;;;36.30;20.03;;;-0.60;1.00;;;;;;5078177;28;20539;-61
2021/12/23 05:42:49;;;;;;;27.63;20.70;;;-0.60;1.00;;;;;;5076758;28;20461;-62
2021/12/23 05:45:19;;;;;;;34.10;21.37;;;-0.60;1.00;;;;;;5077363;28;20461;-62
2021/12/23 05:47:49;;;;;;;32.80;20.87;;;-0.60;1.00;;;;;;5080543;28;20530;-60
2021/12/23 05:50:18;;;;;;;32.43;20.63;;;-0.50;1.00;;;;;;5097907;28;20461;-59
2021/12/23 05:52:45;;;;;;;27.50;18.27;;;-0.60;1.00;;;;;;5084652;28;20466;-60
2021/12/23 05:55:14;;;;;;;29.23;20.13;;;-0.60;1.00;;;;;;5077743;28;20465;-58
2021/12/23 05:57:45;;;;;;;28.77;18.93;;;-0.50;1.00;;;;;;5091236;28;20810;-60
2021/12/23 06:00:18;;;;;;;25.23;18.17;;;-0.50;1.00;;;;;;5097258;28;20522;-62
2021/12/23 06:02:47;;;;;;;33.27;21.27;;;-0.50;1.00;;;;;;5088700;28;20432;-62
2021/12/23 06:05:14;;;;;;;32.90;20.27;;;-0.50;1.00;;;;;;5077647;28;20462;-62
2021/12/23 06:07:42;;;;;;;32.03;20.63;;;-0.50;1.00;;;;;;5077417;28;20465;-62
2021/12/23 06:10:10;;;;;;;31.47;18.80;;;-0.50;1.00;;;;;;5077584;28;20872;-62
2021/12/23 06:12:37;;;;;;;31.63;20.77;;;-0.50;1.00;;;;;;5076943;28;20489;-61
2021/12/23 06:15:06;;;;;;;39.17;26.60;;;-0.50;1.00;;;;;;5077381;28;20469;-62
2021/12/23 06:17:34;;;;;;;30.03;20.93;;;-0.50;1.00;;;;;;5076362;28;20894;-62
2021/12/23 06:20:02;;;;;;;32.50;20.87;;;-0.50;1.00;;;;;;5077568;28;21061;-62
2021/12/23 06:22:29;;;;;;;36.77;23.67;;;-0.50;1.00;;;;;;5076596;28;20488;-61
2021/12/23 06:24:56;;;;;;;34.10;21.87;;;-0.40;1.00;;;;;;5076429;28;20465;-62
2021/12/23 06:27:23;;;;;;;44.97;24.13;;;-0.40;1.00;;;;;;5077521;28;20499;-62
2021/12/23 06:29:50;;;;;;;37.93;24.30;;;-0.40;1.00;;;;;;5077615;28;20462;-62
2021/12/23 06:32:17;;;;;;;43.47;24.80;;;-0.40;1.00;;;;;;5075973;28;20465;-61
2021/12/23 06:34:44;;;;;;;37.17;24.70;;;-0.40;1.00;;;;;;5074931;28;20465;-60
2021/12/23 06:37:13;;;;;;;38.67;25.67;;;-0.30;1.00;;;;;;5076428;28;20520;-62
2021/12/23 06:39:41;;;;;;;29.10;20.40;;;-0.30;1.00;;;;;;5076834;28;20494;-62
2021/12/23 06:42:08;;;;;;;35.03;22.60;;;-0.30;1.00;;;;;;5076988;28;20518;-62
2021/12/23 06:44:36;;;;;;;33.17;21.97;;;-0.30;1.00;;;;;;5075888;28;20462;-61
2021/12/23 06:47:03;;;;;;;36.30;23.90;;;-0.30;1.00;;;;;;5077457;28;20602;-62
2021/12/23 06:49:31;;;;;;;42.23;28.70;;;-0.30;1.00;;;;;;5077528;28;20457;-58
2021/12/23 06:51:59;;;;;;;40.37;25.77;;;-0.20;1.00;;;;;;5078385;28;20473;-61
2021/12/23 06:54:28;;;;;;;33.40;21.50;;;-0.20;1.00;;;;;;5077302;28;20885;-61
2021/12/23 06:56:55;;;;;;;32.50;22.10;;;-0.20;1.00;;;;;;5064197;28;20541;-59
2021/12/23 06:59:25;;;;;;;29.93;20.40;;;-0.10;1.00;;;;;;5077520;28;20549;-62
2021/12/23 07:01:55;;;;;;;33.63;22.07;;;-0.20;1.00;;;;;;5077818;28;20524;-61
2021/12/23 07:04:26;;;;;;;28.90;21.80;;;-0.10;1.00;;;;;;5077459;28;20720;-62
2021/12/23 07:07:07;;;;;;;33.90;21.47;;;-0.10;1.00;;;;;;5076910;28;20466;-61
2021/12/23 07:09:35;;;;;;;29.87;20.50;;;-0.10;1.00;;;;;;5077854;28;20463;-61
2021/12/23 07:12:03;;;;;;;32.47;21.33;;;0.00;1.00;;;;;;5078164;28;20474;-62
2021/12/23 07:14:30;;;;;;;31.87;21.80;;;-0.10;1.00;;;;;;5077198;28;20468;-62
2021/12/23 07:16:57;;;;;;;31.57;20.83;;;0.00;1.00;;;;;;5076834;28;20536;-62
2021/12/23 07:19:24;;;;;;;35.77;23.67;;;0.00;1.00;;;;;;5077442;28;20816;-62
2021/12/23 07:21:55;;;;;;;29.97;20.07;;;0.00;1.00;;;;;;5077630;28;20457;-60
2021/12/23 07:24:23;;;;;;;29.70;19.53;;;0.00;1.00;;;;;;5077064;28;20953;-61
2021/12/23 07:26:51;;;;;;;26.47;18.93;;;0.00;1.00;;;;;;5076833;28;20517;-61
2021/12/23 07:29:19;;;;;;;30.23;20.37;;;0.00;1.00;;;;;;5077337;28;20527;-61
2021/12/23 07:31:46;;;;;;;32.40;20.87;;;0.00;1.00;;;;;;5076903;28;20461;-61
2021/12/23 07:34:13;;;;;;;30.07;19.97;;;0.00;1.00;;;;;;5077095;28;20472;-61
2021/12/23 07:36:41;;;;;;;29.33;20.67;;;0.10;1.00;;;;;;5076708;28;20468;-61
2021/12/23 07:39:11;;;;;;;34.70;20.60;;;0.00;1.00;;;;;;5057333;28;20530;-61
2021/12/23 07:41:38;;;;;;;32.07;19.30;;;0.10;1.00;;;;;;5068564;28;20476;-60
2021/12/23 07:44:09;;;;;;;28.80;20.23;;;0.10;1.00;;;;;;5076782;28;22038;-61
2021/12/23 07:46:38;;;;;;;27.50;19.17;;;0.20;1.00;;;;;;5076853;28;20918;-61
2021/12/23 07:49:05;;;;;;;28.10;19.40;;;0.10;1.00;;;;;;5090226;28;20462;-58
2021/12/23 07:51:35;;;;;;;31.80;22.00;;;0.20;1.00;;;;;;5089856;28;20464;-61
2021/12/23 07:54:02;;;;;;;29.73;19.87;;;0.20;1.00;;;;;;5077630;28;20558;-60
2021/12/23 07:56:29;;;;;;;31.30;20.53;;;0.20;1.00;;;;;;5077180;28;20863;-60
2021/12/23 07:58:56;;;;;;;32.47;19.60;;;0.20;1.00;;;;;;5080644;28;20546;-60
2021/12/23 08:01:24;;;;;;;31.47;20.40;;;0.20;1.00;;;;;;5080112;28;20513;-61
2021/12/23 08:03:54;;;;;;;30.10;19.70;;;0.30;1.00;;;;;;5080447;28;20517;-60
2021/12/23 08:06:21;;;;;;;30.33;21.20;;;0.40;1.00;;;;;;5080211;28;20513;-61
2021/12/23 08:08:48;;;;;;;26.93;18.63;;;0.40;1.00;;;;;;5080702;28;20449;-61
2021/12/23 08:11:18;;;;;;;30.50;21.57;;;0.40;1.00;;;;;;5081159;28;20469;-60
2021/12/23 08:13:45;;;;;;;30.50;19.67;;;0.50;1.00;;;;;;5080426;28;20493;-61
2021/12/23 08:16:12;;;;;;;30.37;19.90;;;0.50;1.00;;;;;;5081045;28;20582;-61
2021/12/23 08:18:41;;;;;;;32.20;20.87;;;0.50;1.00;;;;;;5089829;28;20452;-61
2021/12/23 08:21:11;;;;;;;27.53;18.33;;;0.60;1.00;;;;;;5090858;28;20465;-60
2021/12/23 08:23:39;;;;;;;30.53;21.53;;;0.60;1.00;;;;;;5086585;28;20966;-61
2021/12/23 08:26:15;;;;;;;36.90;22.07;;;0.60;1.00;;;;;;5089119;28;20470;-61
2021/12/23 08:28:45;;;;;;;43.87;26.33;;;0.60;1.00;;;;;;5087808;28;20470;-60
2021/12/23 08:31:12;;;;;;;39.53;23.47;;;0.60;1.00;;;;;;5091162;28;20494;-61
2021/12/23 08:33:40;;;;;;;100.33;47.87;;;0.60;1.00;;;;;;5085794;28;20518;-60
2021/12/23 08:36:07;;;;;;;48.50;29.77;;;0.70;1.00;;;;;;5088573;28;20457;-61
2021/12/23 08:38:34;;;;;;;63.67;34.40;;;0.70;1.00;;;;;;5088708;28;20894;-60
2021/12/23 08:41:01;;;;;;;31.13;19.13;;;0.70;1.00;;;;;;5089157;28;20457;-61
2021/12/23 08:43:28;;;;;;;34.57;21.73;;;0.80;1.00;;;;;;5091412;28;20737;-61
2021/12/23 08:45:55;;;;;;;29.63;20.20;;;0.80;1.00;;;;;;5085646;28;20457;-60
2021/12/23 08:48:26;;;;;;;51.47;32.60;;;0.80;1.00;;;;;;5087892;28;20510;-61
2021/12/23 08:50:54;;;;;;;33.80;21.73;;;0.80;1.00;;;;;;5087213;28;20507;-61
2021/12/23 08:53:21;;;;;;;28.73;20.00;;;0.90;1.00;;;;;;5079986;28;20465;-61
2021/12/23 08:55:48;;;;;;;37.53;24.07;;;0.90;1.00;;;;;;5078375;28;20511;-61
2021/12/23 08:58:17;;;;;;;25.67;19.10;;;1.00;1.00;;;;;;5078814;28;20497;-60
2021/12/23 09:00:44;;;;;;;31.20;21.10;;;1.00;1.00;;;;;;5081881;28;20480;-59
2021/12/23 09:03:12;;;;;;;39.43;25.30;;;1.00;1.00;;;;;;5088974;28;20513;-60
2021/12/23 09:05:43;;;;;;;33.57;21.60;;;1.00;1.00;;;;;;5087845;28;20453;-61
2021/12/23 09:08:11;;;;;;;31.33;22.60;;;1.00;1.00;;;;;;5088314;28;20450;-61
2021/12/23 09:10:38;;;;;;;29.37;19.77;;;1.00;1.00;;;;;;5087321;28;20788;-61
2021/12/23 09:13:10;;;;;;;23.30;17.47;;;1.00;1.00;;;;;;5089866;28;20516;-61
2021/12/23 09:15:37;;;;;;;27.50;18.93;;;1.10;1.00;;;;;;5088883;28;20925;-61
2021/12/23 09:18:07;;;;;;;28.87;20.13;;;1.20;1.00;;;;;;5081964;28;20539;-61
2021/12/23 09:20:34;;;;;;;24.30;17.50;;;1.10;1.00;;;;;;5086181;28;20800;-61
2021/12/23 09:23:01;;;;;;;29.37;19.80;;;1.10;1.00;;;;;;5089528;28;20460;-61
2021/12/23 09:25:33;;;;;;;24.23;18.20;;;1.20;1.00;;;;;;5087955;28;20462;-61
2021/12/23 09:28:11;;;;;;;27.83;19.13;;;1.20;1.00;;;;;;5084782;28;20471;-61
2021/12/23 09:33:25;;;;;;;27.37;19.00;;;1.30;1.00;;;;;;5084744;28;20479;-61
2021/12/23 09:35:52;;;;;;;30.70;19.27;;;1.40;1.00;;;;;;5084432;28;20832;-61
2021/12/23 09:38:27;;;;;;;27.90;18.70;;;1.50;1.00;;;;;;5086006;28;20450;-61
2021/12/23 09:41:00;;;;;;;25.10;17.60;;;1.50;1.00;;;;;;5085904;28;20484;-61
2021/12/23 09:43:30;;;;;;;25.83;17.87;;;1.60;1.00;;;;;;5080526;28;20459;-61
2021/12/23 09:45:57;;;;;;;27.27;18.67;;;1.70;1.00;;;;;;5087530;28;20902;-61
2021/12/23 09:48:27;;;;;;;29.07;18.30;;;1.70;1.00;;;;;;5083477;28;20568;-61
2021/12/23 09:50:55;;;;;;;30.00;18.40;;;1.80;1.00;;;;;;5087212;28;20507;-61
2021/12/23 09:53:23;;;;;;;30.67;20.40;;;1.90;1.00;;;;;;5086215;28;20958;-61
2021/12/23 09:55:53;;;;;;;29.17;18.50;;;2.00;1.00;;;;;;5085011;28;20491;-61
2021/12/23 09:58:24;;;;;;;28.70;17.80;;;2.00;1.00;;;;;;5083902;28;20531;-61
2021/12/23 10:00:55;;;;;;;30.10;18.60;;;2.10;99.90;;;;;;5078070;28;20497;-61
2021/12/23 10:03:25;;;;;;;25.87;18.30;;;2.20;99.90;;;;;;5076207;28;20467;-61
2021/12/23 10:05:52;;;;;;;25.43;17.37;;;2.20;99.90;;;;;;5076202;28;20515;-58
2021/12/23 10:08:25;;;;;;;25.00;17.83;;;2.20;99.90;;;;;;5077002;28;20466;-60
2021/12/23 10:10:59;;;;;;;22.73;16.93;;;2.20;99.90;;;;;;5057346;28;20948;-61
2021/12/23 10:33:26;;;;;;;26.80;18.40;;;2.60;99.90;;;;;;5064634;28;20461;-61
2021/12/23 10:38:41;;;;;;;20.20;15.17;;;2.70;99.90;;;;;;5090859;28;20525;-61
2021/12/23 10:41:12;;;;;;;27.60;17.03;;;2.90;99.90;;;;;;5076846;28;20501;-61
2021/12/23 10:43:41;;;;;;;22.90;16.77;;;3.00;99.90;;;;;;5075603;28;20519;-61
2021/12/23 10:46:12;;;;;;;29.73;22.20;;;3.10;99.90;;;;;;5082289;28;20459;-61
2021/12/23 10:48:51;;;;;;;29.10;18.90;;;3.10;99.90;;;;;;5081563;28;20525;-61
2021/12/23 10:51:19;;;;;;;30.17;18.60;;;3.30;99.90;;;;;;5079329;28;20461;-61
2021/12/23 10:54:15;;;;;;;67.50;37.10;;;3.50;99.90;;;;;;5083246;28;21173;-61
2021/12/23 10:59:30;;;;;;;27.40;18.00;;;4.10;99.90;;;;;;5074677;28;20485;-61
2021/12/23 11:02:34;;;;;;;32.23;20.50;;;4.00;99.90;;;;;;5080039;28;20967;-62
2021/12/23 11:05:10;;;;;;;45.67;25.57;;;4.00;99.90;;;;;;5062951;28;21050;-61
2021/12/23 11:07:49;;;;;;;27.40;17.73;;;3.90;99.90;;;;;;5075662;28;20468;-61
2021/12/23 11:10:26;;;;;;;26.10;16.27;;;3.80;99.90;;;;;;5090578;28;20912;-62
2021/12/23 11:38:32;;;;;;;22.97;16.60;;;4.20;99.90;;;;;;5094246;28;20499;-62
2021/12/23 11:41:06;;;;;;;22.93;17.43;;;4.30;99.90;;;;;;5088995;28;20545;-62
2021/12/23 11:46:31;;;;;;;24.50;17.40;;;4.40;99.90;;;;;;5043133;28;20886;-62
2021/12/23 11:49:01;;;;;;;34.23;16.90;;;4.40;99.90;;;;;;5089703;28;20464;-62
2021/12/23 11:51:33;;;;;;;23.83;17.20;;;4.40;99.90;;;;;;5080183;28;20503;-62
2021/12/23 11:54:03;;;;;;;23.93;17.93;;;4.20;99.90;;;;;;5079689;28;20471;-62
2021/12/23 11:56:36;;;;;;;27.37;18.53;;;4.20;99.90;;;;;;5078766;28;20544;-62
2021/12/23 12:05:02;;;;;;;25.17;17.60;;;4.10;99.90;;;;;;5808422;22;20466;-62
2021/12/23 12:07:31;;;;;;;25.60;17.17;;;4.10;99.90;;;;;;5051750;28;20446;-61
2021/12/23 12:10:05;;;;;;;24.00;16.83;;;4.10;99.90;;;;;;5038772;28;20463;-61
2021/12/23 12:12:33;;;;;;;24.13;16.60;;;4.10;99.90;;;;;;5063500;28;20560;-61
2021/12/23 12:15:07;;;;;;;24.83;17.80;;;4.20;99.90;;;;;;5077905;28;20523;-61
2021/12/23 12:17:42;;;;;;;20.90;15.57;;;4.20;99.90;;;;;;5078051;28;20738;-61
2021/12/23 12:20:36;;;;;;;22.97;17.03;;;4.20;99.90;;;;;;5065861;28;20494;-61
2021/12/23 12:23:07;;;;;;;22.00;15.77;;;4.10;99.90;;;;;;5078068;28;20457;-62
2021/12/23 12:25:49;;;;;;;25.93;17.53;;;4.10;99.90;;;;;;5070455;28;20464;-61
2021/12/23 12:28:21;;;;;;;20.10;16.57;;;4.20;99.90;;;;;;5059498;28;20458;-61
2021/12/23 12:30:50;;;;;;;23.63;16.87;;;4.20;99.90;;;;;;5069606;28;20457;-61
2021/12/23 12:33:54;;;;;;;23.93;16.87;;;4.20;99.90;;;;;;5078906;28;20504;-61
2021/12/23 12:36:23;;;;;;;24.70;17.03;;;4.20;99.90;;;;;;5058972;28;20469;-61
2021/12/23 12:38:54;;;;;;;24.73;17.50;;;4.10;99.90;;;;;;5058362;28;20451;-61
2021/12/23 12:41:32;;;;;;;23.90;16.70;;;4.00;99.90;;;;;;5058400;28;20537;-61
2021/12/23 12:44:07;;;;;;;22.97;16.63;;;3.90;99.90;;;;;;5056844;28;20450;-61
2021/12/23 12:47:04;;;;;;;28.97;18.33;;;3.80;99.90;;;;;;5058307;28;20929;-61
2021/12/23 12:49:37;;;;;;;22.97;17.00;;;3.80;99.90;;;;;;5058464;28;20553;-61
2021/12/23 12:52:16;;;;;;;30.57;20.70;;;3.80;99.90;;;;;;5059593;28;20494;-61
2021/12/23 12:54:49;;;;;;;24.83;17.70;;;3.80;99.90;;;;;;5060114;28;20473;-60
2021/12/23 12:57:19;;;;;;;28.17;18.20;;;3.80;99.90;;;;;;5059253;28;20458;-61
2021/12/23 12:59:50;;;;;;;26.40;19.07;;;3.90;99.90;;;;;;5055271;28;20455;-60
2021/12/23 13:02:26;;;;;;;24.10;16.60;;;3.90;99.90;;;;;;5057047;28;20489;-61
2021/12/23 13:04:59;;;;;;;22.73;17.00;;;3.90;99.90;;;;;;5056036;28;20520;-61
2021/12/23 13:07:30;;;;;;;26.10;17.80;;;3.90;99.90;;;;;;5055401;28;20432;-59
2021/12/23 13:10:08;;;;;;;31.20;21.27;;;3.80;99.90;;;;;;5058669;28;20458;-61
2021/12/23 13:12:47;;;;;;;26.67;17.77;;;3.80;99.90;;;;;;5056941;28;20964;-60
2021/12/23 13:15:19;;;;;;;36.00;24.87;;;3.80;99.90;;;;;;5056503;28;20469;-61
2021/12/23 13:17:58;;;;;;;30.83;21.67;;;3.90;99.90;;;;;;5055363;28;20516;-59
2021/12/23 13:20:50;;;;;;;30.57;20.30;;;3.90;99.90;;;;;;5057487;28;20556;-60
2021/12/23 13:23:21;;;;;;;27.70;19.00;;;3.90;99.90;;;;;;5054249;28;20982;-61
2021/12/23 13:26:00;;;;;;;28.30;21.93;;;4.00;99.90;;;;;;5062590;28;20449;-60
2021/12/23 13:28:39;;;;;;;24.00;18.00;;;4.00;99.90;;;;;;5060037;28;20546;-60
2021/12/23 13:31:11;;;;;;;34.60;22.67;;;4.00;99.90;;;;;;5058833;28;20552;-60
2021/12/23 13:33:44;;;;;;;31.70;21.63;;;4.00;1.00;;;;;;5058693;28;20541;-61
2021/12/23 13:36:19;;;;;;;36.93;25.00;;;4.10;1.00;;;;;;5057733;28;20455;-61
2021/12/23 13:38:46;;;;;;;32.50;21.20;;;4.00;1.00;;;;;;5067899;28;20522;-61
2021/12/23 13:41:23;;;;;;;33.83;23.30;;;4.00;1.00;;;;;;5057741;28;20857;-61
2021/12/23 13:43:53;;;;;;;36.60;22.90;;;3.90;1.00;;;;;;5055599;28;20482;-61
2021/12/23 13:46:22;;;;;;;34.50;20.97;;;3.90;1.00;;;;;;5056364;28;20771;-60
2021/12/23 13:48:52;;;;;;;26.10;20.17;;;3.90;1.00;;;;;;5059436;28;20747;-60
2021/12/23 13:51:22;;;;;;;35.40;22.93;;;4.00;1.00;;;;;;5056285;28;20554;-60
2021/12/23 13:53:49;;;;;;;28.90;18.73;;;4.10;1.00;;;;;;5057529;28;20458;-61
2021/12/23 13:56:17;;;;;;;43.00;27.40;;;4.10;1.00;;;;;;5056706;28;20462;-60
2021/12/23 13:58:44;;;;;;;68.80;38.87;;;4.10;1.00;;;;;;5056394;28;20878;-60